UAE87 OMDB-LSZH
Flight info
| Callsign | UAE87 |
|---|---|
| Flight time | N/A |
| Altitude | 35000 |
| Route | ANVIX L223 TARDI N629 BOTAM Y855 LAKLU/N0492F360 Q204 NALKI G652 TOKRA DCT ALROK DCT BOSOB DCT ITRUX Y511 PMA Z712 SIGRO/N0491F380 Z712 WEJ L677 CVO L617 TANSA UL613 XANIS DCT DIMIS DCT VRANA DCT ELTIB DCT NEMEK DCT ADOMO DCT GIMIX DCT ERKIR DCT KPT L856 NEGRA |
| Aircraft | B77W/H-SDE1E2E3FGHIJ2J3J4J5M1RWXY/LB1D1 |
Departure
| Time | 2026-04-26 08:50 |
|---|---|
| Airport | Dubai International Airport (OMDB) |
Arrival
| Time | N/A |
|---|---|
| Airport | Zürich Airport (LSZH) |
| Time | Latitude | Longitude | Altitude | Speed | Heading |
|---|---|---|---|---|---|
| 2026-04-26 07:59 | 25.24220 | 55.37594 | 46 ft | 0 kts | 250° |
| 2026-04-26 08:37 | 25.24223 | 55.37603 | 46 ft | 2 kts | 250° |
| 2026-04-26 08:37 | 25.24228 | 55.37619 | 46 ft | 2 kts | 250° |
| 2026-04-26 08:38 | 25.24233 | 55.37634 | 46 ft | 2 kts | 251° |
| 2026-04-26 08:38 | 25.24236 | 55.37650 | 46 ft | 2 kts | 271° |
| 2026-04-26 08:38 | 25.24234 | 55.37667 | 46 ft | 2 kts | 289° |
| 2026-04-26 08:38 | 25.24228 | 55.37681 | 46 ft | 2 kts | 305° |
| 2026-04-26 08:39 | 25.24218 | 55.37693 | 46 ft | 2 kts | 322° |
| 2026-04-26 08:39 | 25.24205 | 55.37702 | 46 ft | 2 kts | 339° |
| 2026-04-26 08:39 | 25.24190 | 55.37706 | 46 ft | 2 kts | 356° |
| 2026-04-26 08:39 | 25.24176 | 55.37705 | 46 ft | 2 kts | 13° |
| 2026-04-26 08:40 | 25.24162 | 55.37700 | 46 ft | 1 kts | 30° |
| 2026-04-26 08:40 | 25.24171 | 55.37706 | 46 ft | 0 kts | 29° |
| 2026-04-26 08:43 | 25.24176 | 55.37709 | 46 ft | 3 kts | 29° |
| 2026-04-26 08:43 | 25.24195 | 55.37721 | 46 ft | 2 kts | 30° |
| 2026-04-26 08:43 | 25.24216 | 55.37736 | 46 ft | 4 kts | 33° |
| 2026-04-26 08:44 | 25.24245 | 55.37756 | 46 ft | 5 kts | 33° |
| 2026-04-26 08:44 | 25.24276 | 55.37777 | 46 ft | 5 kts | 31° |
| 2026-04-26 08:44 | 25.24306 | 55.37798 | 46 ft | 5 kts | 32° |
| 2026-04-26 08:44 | 25.24337 | 55.37821 | 46 ft | 5 kts | 33° |
| 2026-04-26 08:45 | 25.24351 | 55.37832 | 46 ft | 0 kts | 33° |
| 2026-04-26 08:46 | 25.24357 | 55.37835 | 46 ft | 3 kts | 32° |
| 2026-04-26 08:46 | 25.24397 | 55.37864 | 46 ft | 7 kts | 33° |
| 2026-04-26 08:46 | 25.24443 | 55.37898 | 46 ft | 7 kts | 34° |
| 2026-04-26 08:47 | 25.24485 | 55.37930 | 46 ft | 6 kts | 34° |
| 2026-04-26 08:47 | 25.24526 | 55.37961 | 46 ft | 7 kts | 34° |
| 2026-04-26 08:47 | 25.24571 | 55.37995 | 46 ft | 7 kts | 34° |
| 2026-04-26 08:47 | 25.24612 | 55.38025 | 46 ft | 6 kts | 32° |
| 2026-04-26 08:48 | 25.24649 | 55.38049 | 46 ft | 5 kts | 31° |
| 2026-04-26 08:48 | 25.24685 | 55.38073 | 46 ft | 6 kts | 31° |
| 2026-04-26 08:48 | 25.24730 | 55.38097 | 46 ft | 7 kts | 10° |
| 2026-04-26 08:48 | 25.24777 | 55.38074 | 46 ft | 8 kts | 309° |
| 2026-04-26 08:49 | 25.24815 | 55.38008 | 46 ft | 17 kts | 303° |
| 2026-04-26 08:49 | 25.24996 | 55.37686 | 46 ft | 88 kts | 301° |
| 2026-04-26 08:49 | 25.25446 | 55.36868 | 46 ft | 161 kts | 301° |
| 2026-04-26 08:49 | 25.26093 | 55.35695 | 510 ft | 187 kts | 299° |
| 2026-04-26 08:50 | 25.26657 | 55.34476 | 1563 ft | 177 kts | 297° |
| 2026-04-26 08:50 | 25.27235 | 55.33275 | 2197 ft | 183 kts | 303° |
| 2026-04-26 08:50 | 25.27951 | 55.32109 | 2820 ft | 188 kts | 307° |
| 2026-04-26 08:50 | 25.28699 | 55.30925 | 3501 ft | 190 kts | 303° |
| 2026-04-26 08:51 | 25.29157 | 55.28114 | 4788 ft | 199 kts | 259° |
| 2026-04-26 08:51 | 25.28625 | 55.26696 | 5377 ft | 208 kts | 240° |
| 2026-04-26 08:51 | 25.27839 | 55.25364 | 6076 ft | 208 kts | 243° |
| 2026-04-26 08:52 | 25.27174 | 55.23953 | 6761 ft | 208 kts | 248° |
| 2026-04-26 08:52 | 25.26577 | 55.22514 | 7402 ft | 211 kts | 248° |
| 2026-04-26 08:52 | 25.25956 | 55.21010 | 7963 ft | 218 kts | 247° |
| 2026-04-26 08:52 | 25.25305 | 55.19458 | 8424 ft | 234 kts | 246° |
| 2026-04-26 08:53 | 25.24383 | 55.17952 | 8956 ft | 247 kts | 224° |
| 2026-04-26 08:53 | 25.22913 | 55.16983 | 9738 ft | 251 kts | 200° |
| 2026-04-26 08:53 | 25.21106 | 55.16737 | 10236 ft | 270 kts | 180° |
| 2026-04-26 08:53 | 25.19253 | 55.17184 | 10906 ft | 280 kts | 155° |
| 2026-04-26 08:54 | 25.17710 | 55.18507 | 11518 ft | 294 kts | 130° |
| 2026-04-26 08:54 | 25.16655 | 55.20524 | 11940 ft | 313 kts | 116° |
| 2026-04-26 08:54 | 25.15722 | 55.22716 | 12748 ft | 316 kts | 117° |
| 2026-04-26 08:54 | 25.14755 | 55.24857 | 13643 ft | 316 kts | 118° |
| 2026-04-26 08:55 | 25.13742 | 55.27006 | 14377 ft | 322 kts | 119° |
| 2026-04-26 08:55 | 25.12690 | 55.29200 | 15083 ft | 328 kts | 120° |
| 2026-04-26 08:55 | 25.11609 | 55.31447 | 15806 ft | 333 kts | 120° |
| 2026-04-26 08:55 | 25.10518 | 55.33714 | 16541 ft | 337 kts | 118° |
| 2026-04-26 08:56 | 25.09527 | 55.36048 | 17184 ft | 344 kts | 115° |
| 2026-04-26 08:56 | 25.08545 | 55.38504 | 17856 ft | 350 kts | 116° |
| 2026-04-26 08:56 | 25.07558 | 55.40942 | 18586 ft | 353 kts | 116° |
| 2026-04-26 08:56 | 25.06571 | 55.43410 | 19227 ft | 360 kts | 115° |
| 2026-04-26 08:57 | 25.05578 | 55.46009 | 19528 ft | 378 kts | 115° |
| 2026-04-26 08:57 | 25.04532 | 55.48744 | 19781 ft | 397 kts | 115° |
| 2026-04-26 08:57 | 25.03431 | 55.51614 | 20085 ft | 414 kts | 115° |
| 2026-04-26 08:57 | 25.02276 | 55.54591 | 20351 ft | 431 kts | 117° |
| 2026-04-26 08:58 | 25.00818 | 55.57567 | 20565 ft | 448 kts | 122° |
| 2026-04-26 08:58 | 24.99207 | 55.60558 | 20852 ft | 464 kts | 123° |
| 2026-04-26 08:58 | 24.97536 | 55.63648 | 21511 ft | 470 kts | 123° |
| 2026-04-26 08:58 | 24.95855 | 55.66754 | 22285 ft | 473 kts | 123° |
| 2026-04-26 08:59 | 24.94157 | 55.69832 | 22923 ft | 478 kts | 126° |
| 2026-04-26 08:59 | 24.92233 | 55.72825 | 23561 ft | 481 kts | 129° |
| 2026-04-26 08:59 | 24.90252 | 55.75810 | 24269 ft | 484 kts | 129° |
| 2026-04-26 08:59 | 24.88263 | 55.78803 | 24939 ft | 487 kts | 129° |
| 2026-04-26 09:00 | 24.86255 | 55.81825 | 25567 ft | 491 kts | 129° |
| 2026-04-26 09:00 | 24.84228 | 55.84874 | 26169 ft | 496 kts | 129° |
| 2026-04-26 09:00 | 24.82188 | 55.87908 | 26768 ft | 499 kts | 130° |
| 2026-04-26 09:00 | 24.80102 | 55.90982 | 27398 ft | 502 kts | 130° |
| 2026-04-26 09:01 | 24.77899 | 55.93982 | 28021 ft | 502 kts | 136° |
| 2026-04-26 09:01 | 24.75437 | 55.96645 | 28608 ft | 503 kts | 140° |
| 2026-04-26 09:01 | 24.72880 | 55.99279 | 29178 ft | 506 kts | 140° |
| 2026-04-26 09:01 | 24.70294 | 56.01933 | 29710 ft | 509 kts | 140° |
| 2026-04-26 09:02 | 24.67704 | 56.04590 | 30074 ft | 517 kts | 139° |
| 2026-04-26 09:02 | 24.65062 | 56.07306 | 30454 ft | 523 kts | 139° |
| 2026-04-26 09:02 | 24.62392 | 56.10051 | 30911 ft | 527 kts | 139° |
| 2026-04-26 09:02 | 24.59698 | 56.12820 | 31315 ft | 532 kts | 139° |
| 2026-04-26 09:03 | 24.57026 | 56.15654 | 31685 ft | 538 kts | 134° |
| 2026-04-26 09:03 | 24.54553 | 56.18714 | 32072 ft | 542 kts | 131° |
| 2026-04-26 09:03 | 24.52083 | 56.21863 | 32423 ft | 547 kts | 131° |
| 2026-04-26 09:03 | 24.49599 | 56.25034 | 32776 ft | 551 kts | 131° |
| 2026-04-26 09:04 | 24.47097 | 56.28226 | 33337 ft | 552 kts | 131° |
| 2026-04-26 09:04 | 24.44610 | 56.31394 | 34118 ft | 548 kts | 130° |
| 2026-04-26 09:04 | 24.42133 | 56.34546 | 34860 ft | 544 kts | 131° |
| 2026-04-26 09:04 | 24.39655 | 56.37696 | 34992 ft | 546 kts | 131° |
| 2026-04-26 09:05 | 24.37189 | 56.40828 | 34978 ft | 543 kts | 130° |
| 2026-04-26 09:05 | 24.32213 | 56.47143 | 34936 ft | 541 kts | 131° |
| 2026-04-26 09:06 | 24.27306 | 56.53662 | 34912 ft | 541 kts | 125° |
| 2026-04-26 09:06 | 24.22940 | 56.60364 | 34894 ft | 540 kts | 124° |
| 2026-04-26 09:07 | 24.18567 | 56.67035 | 34874 ft | 540 kts | 125° |
| 2026-04-26 09:07 | 24.14165 | 56.73704 | 34853 ft | 540 kts | 125° |
| 2026-04-26 09:08 | 24.09728 | 56.80383 | 34848 ft | 540 kts | 127° |
| 2026-04-26 09:08 | 24.04499 | 56.86156 | 34840 ft | 539 kts | 144° |
| 2026-04-26 09:09 | 23.97980 | 56.90191 | 34859 ft | 536 kts | 161° |
| 2026-04-26 09:09 | 23.90871 | 56.92431 | 34889 ft | 532 kts | 169° |
| 2026-04-26 09:10 | 23.83682 | 56.94371 | 34890 ft | 531 kts | 169° |
| 2026-04-26 09:10 | 23.76512 | 56.96297 | 34923 ft | 532 kts | 169° |
| 2026-04-26 09:11 | 23.69247 | 56.98246 | 34951 ft | 532 kts | 169° |
| 2026-04-26 09:11 | 23.61987 | 57.00190 | 34978 ft | 532 kts | 169° |
| 2026-04-26 09:12 | 23.54801 | 57.02113 | 35017 ft | 533 kts | 169° |
| 2026-04-26 09:12 | 23.47547 | 57.04050 | 35055 ft | 533 kts | 169° |
| 2026-04-26 09:13 | 23.40278 | 57.05737 | 35092 ft | 526 kts | 178° |
| 2026-04-26 09:13 | 23.32972 | 57.05518 | 35140 ft | 521 kts | 194° |
| 2026-04-26 09:14 | 23.25890 | 57.03924 | 35172 ft | 516 kts | 197° |
| 2026-04-26 09:14 | 23.18829 | 57.02261 | 35147 ft | 517 kts | 197° |
| 2026-04-26 09:15 | 23.11807 | 57.00608 | 35108 ft | 517 kts | 197° |
| 2026-04-26 09:15 | 23.04714 | 56.98941 | 35068 ft | 517 kts | 197° |
| 2026-04-26 09:16 | 22.97649 | 56.97282 | 35040 ft | 520 kts | 197° |
| 2026-04-26 09:16 | 22.90652 | 56.95364 | 35051 ft | 512 kts | 206° |
| 2026-04-26 09:17 | 22.84482 | 56.91779 | 35035 ft | 498 kts | 223° |
| 2026-04-26 09:17 | 22.79565 | 56.86652 | 35017 ft | 485 kts | 238° |
| 2026-04-26 09:18 | 22.76094 | 56.80530 | 35002 ft | 475 kts | 249° |
| 2026-04-26 09:18 | 22.73065 | 56.74218 | 34958 ft | 473 kts | 249° |
| 2026-04-26 09:19 | 22.70033 | 56.67909 | 34935 ft | 475 kts | 249° |
| 2026-04-26 09:19 | 22.66977 | 56.61563 | 34921 ft | 473 kts | 249° |
| 2026-04-26 09:20 | 22.63929 | 56.55246 | 34913 ft | 474 kts | 249° |
| 2026-04-26 09:20 | 22.60883 | 56.48942 | 34905 ft | 473 kts | 249° |
| 2026-04-26 09:21 | 22.57839 | 56.42650 | 34896 ft | 473 kts | 249° |
| 2026-04-26 09:21 | 22.54776 | 56.36328 | 34891 ft | 473 kts | 249° |
| 2026-04-26 09:22 | 22.51733 | 56.30045 | 34891 ft | 474 kts | 248° |
| 2026-04-26 09:22 | 22.48682 | 56.23753 | 34884 ft | 474 kts | 248° |
| 2026-04-26 09:23 | 22.45611 | 56.17428 | 34879 ft | 474 kts | 248° |
| 2026-04-26 09:23 | 22.42561 | 56.11153 | 34871 ft | 473 kts | 248° |
| 2026-04-26 09:24 | 22.39472 | 56.04805 | 34868 ft | 476 kts | 248° |
| 2026-04-26 09:24 | 22.36400 | 55.98513 | 34865 ft | 476 kts | 248° |
| 2026-04-26 09:25 | 22.33309 | 55.92220 | 34864 ft | 475 kts | 248° |
| 2026-04-26 09:25 | 22.30223 | 55.85943 | 34862 ft | 475 kts | 248° |
| 2026-04-26 09:26 | 22.27127 | 55.79653 | 34862 ft | 475 kts | 248° |
| 2026-04-26 09:26 | 22.24028 | 55.73350 | 34866 ft | 474 kts | 248° |
| 2026-04-26 09:27 | 22.20949 | 55.67076 | 34869 ft | 475 kts | 248° |
| 2026-04-26 09:27 | 22.17873 | 55.60817 | 34867 ft | 474 kts | 248° |
| 2026-04-26 09:28 | 22.15675 | 55.54245 | 34861 ft | 463 kts | 264° |
| 2026-04-26 09:28 | 22.14959 | 55.47388 | 34862 ft | 458 kts | 270° |
| 2026-04-26 09:29 | 22.14402 | 55.40573 | 34866 ft | 457 kts | 270° |
| 2026-04-26 09:29 | 22.13842 | 55.33736 | 34859 ft | 456 kts | 270° |
| 2026-04-26 09:30 | 22.13277 | 55.26903 | 34901 ft | 455 kts | 270° |
| 2026-04-26 09:30 | 22.12998 | 55.23543 | 35115 ft | 454 kts | 270° |
| 2026-04-26 09:30 | 22.12716 | 55.20138 | 35345 ft | 455 kts | 270° |
| 2026-04-26 09:30 | 22.12431 | 55.16724 | 35572 ft | 455 kts | 270° |
| 2026-04-26 09:31 | 22.12146 | 55.13302 | 35802 ft | 456 kts | 270° |
| 2026-04-26 09:31 | 22.11576 | 55.06509 | 35883 ft | 455 kts | 270° |
| 2026-04-26 09:32 | 22.11004 | 54.99729 | 35889 ft | 454 kts | 270° |
| 2026-04-26 09:32 | 22.10426 | 54.92902 | 35888 ft | 456 kts | 270° |
| 2026-04-26 09:33 | 22.09848 | 54.86125 | 35882 ft | 455 kts | 270° |
| 2026-04-26 09:33 | 22.09271 | 54.79372 | 35876 ft | 455 kts | 270° |
| 2026-04-26 09:34 | 22.08687 | 54.72589 | 35869 ft | 454 kts | 269° |
| 2026-04-26 09:34 | 22.08102 | 54.65819 | 35870 ft | 453 kts | 269° |
| 2026-04-26 09:35 | 22.07519 | 54.59108 | 35871 ft | 454 kts | 270° |
| 2026-04-26 09:35 | 22.06927 | 54.52323 | 35872 ft | 453 kts | 270° |
| 2026-04-26 09:36 | 22.06336 | 54.45574 | 35872 ft | 454 kts | 269° |
| 2026-04-26 09:36 | 22.05743 | 54.38846 | 35874 ft | 454 kts | 269° |
| 2026-04-26 09:37 | 22.05145 | 54.32085 | 35881 ft | 454 kts | 269° |
| 2026-04-26 09:37 | 22.04545 | 54.25343 | 35880 ft | 453 kts | 269° |
| 2026-04-26 09:38 | 22.03944 | 54.18609 | 35881 ft | 454 kts | 269° |
| 2026-04-26 09:38 | 22.03335 | 54.11835 | 35877 ft | 453 kts | 269° |
| 2026-04-26 09:39 | 22.02730 | 54.05119 | 35879 ft | 453 kts | 269° |
| 2026-04-26 09:39 | 22.02119 | 53.98383 | 35882 ft | 453 kts | 269° |
| 2026-04-26 09:40 | 22.01504 | 53.91619 | 35889 ft | 452 kts | 269° |
| 2026-04-26 09:40 | 22.00890 | 53.84907 | 35894 ft | 452 kts | 269° |
| 2026-04-26 09:41 | 22.00275 | 53.78207 | 35891 ft | 451 kts | 269° |
| 2026-04-26 09:41 | 21.99654 | 53.71478 | 35884 ft | 452 kts | 269° |
| 2026-04-26 09:42 | 21.99030 | 53.64736 | 35882 ft | 453 kts | 269° |
| 2026-04-26 09:42 | 21.98403 | 53.58008 | 35883 ft | 453 kts | 269° |
| 2026-04-26 09:43 | 21.97776 | 53.51301 | 35884 ft | 453 kts | 269° |
| 2026-04-26 09:43 | 21.97144 | 53.44568 | 35882 ft | 453 kts | 269° |
| 2026-04-26 09:44 | 21.96509 | 53.37837 | 35876 ft | 452 kts | 269° |
| 2026-04-26 09:44 | 21.95871 | 53.31107 | 35880 ft | 451 kts | 268° |
| 2026-04-26 09:45 | 21.95233 | 53.24404 | 35880 ft | 451 kts | 268° |
| 2026-04-26 09:45 | 21.94591 | 53.17688 | 35879 ft | 452 kts | 268° |
| 2026-04-26 09:46 | 21.93945 | 53.10958 | 35882 ft | 451 kts | 268° |
| 2026-04-26 09:46 | 21.93301 | 53.04279 | 35879 ft | 451 kts | 268° |
| 2026-04-26 09:47 | 21.92654 | 52.97593 | 35881 ft | 452 kts | 268° |
| 2026-04-26 09:47 | 21.92002 | 52.90888 | 35881 ft | 448 kts | 268° |
| 2026-04-26 09:48 | 21.91350 | 52.84203 | 35886 ft | 453 kts | 268° |
| 2026-04-26 09:48 | 21.90687 | 52.77455 | 35884 ft | 450 kts | 268° |
| 2026-04-26 09:49 | 21.90198 | 52.70779 | 35883 ft | 446 kts | 276° |
| 2026-04-26 09:49 | 21.91120 | 52.64183 | 35888 ft | 442 kts | 284° |
| 2026-04-26 09:50 | 21.92335 | 52.57699 | 35888 ft | 441 kts | 284° |
| 2026-04-26 09:50 | 21.93529 | 52.51258 | 35893 ft | 440 kts | 284° |
| 2026-04-26 09:51 | 21.94724 | 52.44778 | 35900 ft | 441 kts | 284° |
| 2026-04-26 09:51 | 21.95918 | 52.38267 | 35902 ft | 441 kts | 284° |
| 2026-04-26 09:52 | 21.97099 | 52.31804 | 35911 ft | 441 kts | 283° |
| 2026-04-26 09:52 | 21.98874 | 52.22058 | 35909 ft | 438 kts | 283° |
| 2026-04-26 09:53 | 22.00045 | 52.15612 | 35906 ft | 439 kts | 283° |
| 2026-04-26 09:53 | 22.01209 | 52.09184 | 35906 ft | 439 kts | 283° |
| 2026-04-26 09:54 | 22.02378 | 52.02719 | 35906 ft | 439 kts | 283° |
| 2026-04-26 09:54 | 22.03537 | 51.96289 | 35901 ft | 440 kts | 283° |
| 2026-04-26 09:55 | 22.04704 | 51.89800 | 35899 ft | 439 kts | 283° |
| 2026-04-26 09:55 | 22.05853 | 51.83396 | 35898 ft | 440 kts | 283° |
| 2026-04-26 09:56 | 22.07016 | 51.76898 | 35899 ft | 439 kts | 283° |
| 2026-04-26 09:56 | 22.08168 | 51.70449 | 35904 ft | 439 kts | 283° |
| 2026-04-26 09:57 | 22.09314 | 51.64017 | 35897 ft | 438 kts | 283° |
| 2026-04-26 09:57 | 22.10458 | 51.57579 | 35897 ft | 439 kts | 283° |
| 2026-04-26 09:58 | 22.11597 | 51.51158 | 35899 ft | 437 kts | 283° |
| 2026-04-26 09:58 | 22.12743 | 51.44680 | 35896 ft | 439 kts | 283° |
| 2026-04-26 09:59 | 22.13873 | 51.38277 | 35893 ft | 440 kts | 283° |
| 2026-04-26 09:59 | 22.15013 | 51.31797 | 35910 ft | 438 kts | 283° |
| 2026-04-26 10:00 | 22.16145 | 51.25359 | 35899 ft | 439 kts | 282° |
| 2026-04-26 10:00 | 22.17274 | 51.18913 | 35901 ft | 438 kts | 283° |
| 2026-04-26 10:01 | 22.18400 | 51.12468 | 35900 ft | 438 kts | 283° |
| 2026-04-26 10:01 | 22.19523 | 51.06030 | 35896 ft | 439 kts | 282° |
| 2026-04-26 10:02 | 22.20643 | 50.99593 | 35900 ft | 439 kts | 282° |
| 2026-04-26 10:02 | 22.21764 | 50.93133 | 35903 ft | 439 kts | 282° |
| 2026-04-26 10:03 | 22.22885 | 50.86659 | 35906 ft | 439 kts | 282° |
| 2026-04-26 10:03 | 22.24000 | 50.80198 | 35908 ft | 438 kts | 282° |
| 2026-04-26 10:04 | 22.25117 | 50.73715 | 35909 ft | 439 kts | 282° |
| 2026-04-26 10:04 | 22.26229 | 50.67244 | 35915 ft | 438 kts | 282° |
| 2026-04-26 10:05 | 22.27341 | 50.60760 | 35912 ft | 438 kts | 282° |
| 2026-04-26 10:05 | 22.28442 | 50.54317 | 35912 ft | 437 kts | 282° |
| 2026-04-26 10:06 | 22.29536 | 50.47906 | 35914 ft | 438 kts | 282° |
| 2026-04-26 10:06 | 22.30636 | 50.41443 | 35913 ft | 437 kts | 282° |
| 2026-04-26 10:07 | 22.31734 | 50.34973 | 35916 ft | 437 kts | 282° |
| 2026-04-26 10:07 | 22.32819 | 50.28560 | 35929 ft | 436 kts | 282° |
| 2026-04-26 10:08 | 22.33909 | 50.22112 | 35929 ft | 436 kts | 282° |
| 2026-04-26 10:08 | 22.34989 | 50.15698 | 35928 ft | 435 kts | 282° |
| 2026-04-26 10:09 | 22.36065 | 50.09297 | 35929 ft | 436 kts | 282° |
| 2026-04-26 10:09 | 22.37149 | 50.02825 | 35929 ft | 435 kts | 282° |
| 2026-04-26 10:10 | 22.38221 | 49.96417 | 35927 ft | 437 kts | 282° |
| 2026-04-26 10:10 | 22.39292 | 49.89997 | 35928 ft | 435 kts | 281° |
| 2026-04-26 10:11 | 22.40362 | 49.83564 | 35928 ft | 437 kts | 281° |
| 2026-04-26 10:11 | 22.41437 | 49.77088 | 35929 ft | 436 kts | 281° |
| 2026-04-26 10:12 | 22.42501 | 49.70658 | 35932 ft | 436 kts | 281° |
| 2026-04-26 10:12 | 22.43560 | 49.64243 | 35927 ft | 437 kts | 281° |
| 2026-04-26 10:13 | 22.44625 | 49.57775 | 35925 ft | 436 kts | 281° |
| 2026-04-26 10:13 | 22.45679 | 49.51361 | 35923 ft | 435 kts | 281° |
| 2026-04-26 10:14 | 22.46731 | 49.44937 | 35922 ft | 436 kts | 281° |
| 2026-04-26 10:14 | 22.47782 | 49.38505 | 35926 ft | 436 kts | 281° |
| 2026-04-26 10:15 | 22.48834 | 49.32054 | 35944 ft | 436 kts | 281° |
| 2026-04-26 10:15 | 22.49882 | 49.25606 | 35938 ft | 436 kts | 281° |
| 2026-04-26 10:16 | 22.50932 | 49.19132 | 35945 ft | 437 kts | 281° |
| 2026-04-26 10:16 | 22.51980 | 49.12652 | 35941 ft | 437 kts | 281° |
| 2026-04-26 10:17 | 22.53022 | 49.06189 | 35947 ft | 436 kts | 281° |
| 2026-04-26 10:17 | 22.54064 | 48.99711 | 35947 ft | 436 kts | 281° |
| 2026-04-26 10:18 | 22.55104 | 48.93229 | 35943 ft | 436 kts | 281° |
| 2026-04-26 10:18 | 22.56135 | 48.86789 | 35936 ft | 436 kts | 280° |
| 2026-04-26 10:19 | 22.57168 | 48.80318 | 35935 ft | 436 kts | 281° |
| 2026-04-26 10:19 | 22.58196 | 48.73856 | 35937 ft | 436 kts | 280° |
| 2026-04-26 10:20 | 22.59224 | 48.67384 | 35938 ft | 437 kts | 281° |
| 2026-04-26 10:20 | 22.60249 | 48.60908 | 35945 ft | 436 kts | 280° |
| 2026-04-26 10:21 | 22.61264 | 48.54478 | 35952 ft | 436 kts | 280° |
| 2026-04-26 10:21 | 22.62277 | 48.48050 | 35961 ft | 434 kts | 281° |
| 2026-04-26 10:22 | 22.63292 | 48.41586 | 35963 ft | 434 kts | 281° |
| 2026-04-26 10:22 | 22.64297 | 48.35170 | 35964 ft | 434 kts | 280° |
| 2026-04-26 10:23 | 22.65303 | 48.28728 | 35982 ft | 435 kts | 280° |
| 2026-04-26 10:23 | 22.66309 | 48.22274 | 35982 ft | 435 kts | 280° |
| 2026-04-26 10:24 | 22.67308 | 48.15844 | 35987 ft | 435 kts | 280° |
| 2026-04-26 10:24 | 22.68309 | 48.09383 | 35986 ft | 435 kts | 280° |
| 2026-04-26 10:25 | 22.69229 | 48.02957 | 35987 ft | 434 kts | 277° |
| 2026-04-26 10:25 | 22.69792 | 47.96433 | 35984 ft | 435 kts | 276° |
| 2026-04-26 10:26 | 22.70335 | 47.89958 | 35986 ft | 434 kts | 276° |
| 2026-04-26 10:26 | 22.70880 | 47.83431 | 35987 ft | 434 kts | 276° |
| 2026-04-26 10:27 | 22.71418 | 47.76953 | 35991 ft | 435 kts | 276° |
| 2026-04-26 10:27 | 22.71957 | 47.70431 | 35994 ft | 433 kts | 276° |
| 2026-04-26 10:28 | 22.72492 | 47.63933 | 36002 ft | 433 kts | 276° |
| 2026-04-26 10:28 | 22.73023 | 47.57444 | 36008 ft | 433 kts | 276° |
| 2026-04-26 10:29 | 22.73554 | 47.50935 | 36011 ft | 434 kts | 276° |
| 2026-04-26 10:29 | 22.74081 | 47.44437 | 36010 ft | 435 kts | 276° |
| 2026-04-26 10:30 | 22.74605 | 47.37933 | 36014 ft | 434 kts | 276° |
| 2026-04-26 10:30 | 22.75129 | 47.31405 | 36035 ft | 434 kts | 275° |
| 2026-04-26 10:31 | 22.75646 | 47.24930 | 36036 ft | 433 kts | 275° |
| 2026-04-26 10:31 | 22.76163 | 47.18418 | 36035 ft | 433 kts | 275° |
| 2026-04-26 10:32 | 22.76681 | 47.11906 | 36037 ft | 434 kts | 275° |
| 2026-04-26 10:32 | 22.77195 | 47.05436 | 36038 ft | 434 kts | 275° |
| 2026-04-26 10:33 | 22.77710 | 46.98917 | 36039 ft | 434 kts | 275° |
| 2026-04-26 10:33 | 22.78217 | 46.92454 | 36039 ft | 433 kts | 275° |
| 2026-04-26 10:34 | 22.78728 | 46.85928 | 36046 ft | 433 kts | 275° |
| 2026-04-26 10:34 | 22.79230 | 46.79458 | 36049 ft | 433 kts | 275° |
| 2026-04-26 10:35 | 22.79732 | 46.72971 | 36050 ft | 433 kts | 275° |
| 2026-04-26 10:35 | 22.80232 | 46.66472 | 36059 ft | 433 kts | 275° |
| 2026-04-26 10:36 | 22.80729 | 46.59974 | 36069 ft | 434 kts | 275° |
| 2026-04-26 10:36 | 22.81221 | 46.53506 | 36079 ft | 434 kts | 275° |
| 2026-04-26 10:37 | 22.81716 | 46.46966 | 36087 ft | 434 kts | 275° |
| 2026-04-26 10:37 | 22.82207 | 46.40445 | 36094 ft | 433 kts | 275° |
| 2026-04-26 10:38 | 22.82695 | 46.33899 | 36102 ft | 434 kts | 275° |
| 2026-04-26 10:38 | 22.83177 | 46.27383 | 36108 ft | 433 kts | 275° |
| 2026-04-26 10:39 | 22.83654 | 46.20898 | 36102 ft | 432 kts | 275° |
| 2026-04-26 10:39 | 22.84131 | 46.14388 | 36086 ft | 433 kts | 275° |
| 2026-04-26 10:40 | 22.84605 | 46.07875 | 36070 ft | 432 kts | 275° |
| 2026-04-26 10:40 | 22.85073 | 46.01410 | 36051 ft | 432 kts | 275° |
| 2026-04-26 10:41 | 22.85538 | 45.94947 | 36041 ft | 432 kts | 275° |
| 2026-04-26 10:41 | 22.86002 | 45.88457 | 36041 ft | 432 kts | 275° |
| 2026-04-26 10:42 | 22.86463 | 45.81983 | 36040 ft | 431 kts | 275° |
| 2026-04-26 10:42 | 22.86922 | 45.75499 | 36040 ft | 432 kts | 275° |
| 2026-04-26 10:43 | 22.87377 | 45.69020 | 36043 ft | 432 kts | 275° |
| 2026-04-26 10:43 | 22.87834 | 45.62485 | 36047 ft | 433 kts | 275° |
| 2026-04-26 10:44 | 22.88285 | 45.55999 | 36053 ft | 432 kts | 274° |
| 2026-04-26 10:44 | 22.88731 | 45.49542 | 36057 ft | 432 kts | 275° |
| 2026-04-26 10:45 | 22.89177 | 45.43055 | 36057 ft | 431 kts | 275° |
| 2026-04-26 10:45 | 22.89619 | 45.36574 | 36057 ft | 432 kts | 275° |
| 2026-04-26 10:46 | 22.90060 | 45.30084 | 36069 ft | 431 kts | 274° |
| 2026-04-26 10:46 | 22.90498 | 45.23580 | 36069 ft | 431 kts | 274° |
| 2026-04-26 10:47 | 22.90934 | 45.17082 | 36068 ft | 431 kts | 274° |
| 2026-04-26 10:47 | 22.91365 | 45.10619 | 36069 ft | 431 kts | 274° |
| 2026-04-26 10:48 | 22.91795 | 45.04127 | 36070 ft | 432 kts | 274° |
| 2026-04-26 10:48 | 22.92222 | 44.97612 | 36072 ft | 431 kts | 274° |
| 2026-04-26 10:49 | 22.92643 | 44.91169 | 36070 ft | 430 kts | 274° |
| 2026-04-26 10:49 | 22.93063 | 44.84706 | 36074 ft | 429 kts | 274° |
| 2026-04-26 10:50 | 22.93479 | 44.78255 | 36075 ft | 429 kts | 274° |
| 2026-04-26 10:50 | 22.93894 | 44.71778 | 36080 ft | 430 kts | 274° |
| 2026-04-26 10:51 | 22.95670 | 44.62263 | 36077 ft | 431 kts | 287° |
| 2026-04-26 10:52 | 22.97577 | 44.56103 | 36074 ft | 429 kts | 287° |
| 2026-04-26 10:52 | 22.99477 | 44.49953 | 36068 ft | 430 kts | 287° |
| 2026-04-26 10:53 | 23.01374 | 44.43798 | 36070 ft | 427 kts | 287° |
| 2026-04-26 10:53 | 23.03263 | 44.37661 | 36080 ft | 428 kts | 287° |
| 2026-04-26 10:54 | 23.06090 | 44.28457 | 36109 ft | 427 kts | 287° |
| 2026-04-26 10:54 | 23.07979 | 44.22290 | 36111 ft | 427 kts | 287° |
| 2026-04-26 10:55 | 23.09852 | 44.16170 | 36116 ft | 427 kts | 287° |
| 2026-04-26 10:55 | 23.11718 | 44.10062 | 36119 ft | 427 kts | 287° |
| 2026-04-26 10:56 | 23.13593 | 44.03916 | 36120 ft | 426 kts | 286° |
| 2026-04-26 10:56 | 23.15451 | 43.97816 | 36120 ft | 427 kts | 286° |
| 2026-04-26 10:57 | 23.17320 | 43.91668 | 36115 ft | 428 kts | 286° |
| 2026-04-26 10:57 | 23.19183 | 43.85533 | 36109 ft | 428 kts | 286° |
| 2026-04-26 10:58 | 23.21032 | 43.79433 | 36100 ft | 428 kts | 286° |
| 2026-04-26 10:58 | 23.22909 | 43.73233 | 36108 ft | 428 kts | 286° |
| 2026-04-26 10:59 | 23.24759 | 43.67112 | 36101 ft | 426 kts | 286° |
| 2026-04-26 10:59 | 23.26607 | 43.60986 | 36101 ft | 427 kts | 286° |
| 2026-04-26 11:00 | 23.28450 | 43.54870 | 36105 ft | 427 kts | 286° |
| 2026-04-26 11:00 | 23.30299 | 43.48724 | 36099 ft | 426 kts | 286° |
| 2026-04-26 11:01 | 23.32142 | 43.42589 | 36104 ft | 427 kts | 286° |
| 2026-04-26 11:01 | 23.33975 | 43.36479 | 36105 ft | 427 kts | 286° |
| 2026-04-26 11:02 | 23.35812 | 43.30341 | 36121 ft | 427 kts | 286° |
| 2026-04-26 11:02 | 23.37649 | 43.24198 | 36127 ft | 426 kts | 285° |
| 2026-04-26 11:03 | 23.39480 | 43.18064 | 36122 ft | 426 kts | 285° |
| 2026-04-26 11:03 | 23.41305 | 43.11937 | 36121 ft | 426 kts | 285° |
| 2026-04-26 11:04 | 23.43129 | 43.05791 | 36120 ft | 427 kts | 285° |
| 2026-04-26 11:04 | 23.44943 | 42.99673 | 36120 ft | 426 kts | 285° |
| 2026-04-26 11:05 | 23.46760 | 42.93529 | 36118 ft | 426 kts | 285° |
| 2026-04-26 11:05 | 23.48574 | 42.87388 | 36113 ft | 427 kts | 285° |
| 2026-04-26 11:06 | 23.50381 | 42.81262 | 36109 ft | 427 kts | 285° |
| 2026-04-26 11:06 | 23.52187 | 42.75129 | 36110 ft | 426 kts | 285° |
| 2026-04-26 11:07 | 23.54002 | 42.68970 | 36108 ft | 426 kts | 285° |
| 2026-04-26 11:07 | 23.55796 | 42.62877 | 36108 ft | 426 kts | 285° |
| 2026-04-26 11:08 | 23.57608 | 42.56707 | 36104 ft | 427 kts | 285° |
| 2026-04-26 11:08 | 23.59392 | 42.50628 | 36096 ft | 425 kts | 285° |
| 2026-04-26 11:09 | 23.61198 | 42.44463 | 36092 ft | 424 kts | 285° |
| 2026-04-26 11:09 | 23.62989 | 42.38337 | 36089 ft | 426 kts | 285° |
| 2026-04-26 11:10 | 23.64772 | 42.32226 | 36102 ft | 424 kts | 285° |
| 2026-04-26 11:10 | 23.66549 | 42.26125 | 36103 ft | 424 kts | 285° |
| 2026-04-26 11:11 | 23.68330 | 42.19984 | 36100 ft | 423 kts | 284° |
| 2026-04-26 11:11 | 23.70098 | 42.13876 | 36098 ft | 424 kts | 285° |
| 2026-04-26 11:12 | 23.71860 | 42.07780 | 36091 ft | 423 kts | 284° |
| 2026-04-26 11:12 | 23.73632 | 42.01639 | 36093 ft | 424 kts | 284° |
| 2026-04-26 11:13 | 23.75395 | 41.95530 | 36085 ft | 422 kts | 285° |
| 2026-04-26 11:13 | 23.77163 | 41.89413 | 36078 ft | 423 kts | 285° |
| 2026-04-26 11:14 | 23.78929 | 41.83295 | 36077 ft | 422 kts | 284° |
| 2026-04-26 11:14 | 23.80695 | 41.77163 | 36077 ft | 422 kts | 284° |
| 2026-04-26 11:15 | 23.82443 | 41.71080 | 36073 ft | 422 kts | 284° |
| 2026-04-26 11:15 | 23.84190 | 41.64988 | 36076 ft | 421 kts | 284° |
| 2026-04-26 11:16 | 23.85948 | 41.58847 | 36075 ft | 421 kts | 284° |
| 2026-04-26 11:16 | 23.87685 | 41.52758 | 36074 ft | 420 kts | 284° |
| 2026-04-26 11:17 | 23.89420 | 41.46647 | 36077 ft | 420 kts | 284° |
| 2026-04-26 11:17 | 23.91155 | 41.40532 | 36079 ft | 420 kts | 284° |